JTM125 ZHHH-ZSHC
Flight info
| Callsign | JTM125 |
|---|---|
| Flight time | 1h 34m |
| Altitude | 33100 |
| Route | BIVIP R343 UPLEL W95 SAPIN A470 IGRAT |
| Aircraft | B738/M-SDE2FGHIRWY/L |
Departure
| Time | 2026-05-04 15:03 |
|---|---|
| Airport | Wuhan Tianhe International Airport (ZHHH) |
Arrival
| Time | 2026-05-04 16:38 |
|---|---|
| Airport | Hangzhou Xiaoshan International Airport (ZSHC) |
| Time | Latitude | Longitude | Altitude | Speed | Heading |
|---|---|---|---|---|---|
| 2026-05-04 14:50 | 30.77250 | 114.19667 | 117 ft | 0 kts | 41° |
| 2026-05-04 14:50 | 30.77995 | 114.21019 | 117 ft | 0 kts | 221° |
| 2026-05-04 14:57 | 30.78003 | 114.21028 | 117 ft | 2 kts | 221° |
| 2026-05-04 14:57 | 30.78026 | 114.21051 | 117 ft | 6 kts | 221° |
| 2026-05-04 14:57 | 30.78045 | 114.21084 | 117 ft | 2 kts | 305° |
| 2026-05-04 14:58 | 30.78054 | 114.21072 | 117 ft | 9 kts | 312° |
| 2026-05-04 14:58 | 30.78131 | 114.20985 | 117 ft | 17 kts | 315° |
| 2026-05-04 14:58 | 30.78162 | 114.20873 | 117 ft | 15 kts | 234° |
| 2026-05-04 14:58 | 30.78085 | 114.20786 | 117 ft | 15 kts | 222° |
| 2026-05-04 14:59 | 30.77993 | 114.20695 | 117 ft | 18 kts | 219° |
| 2026-05-04 14:59 | 30.77896 | 114.20604 | 117 ft | 18 kts | 218° |
| 2026-05-04 14:59 | 30.77706 | 114.20399 | 117 ft | 19 kts | 220° |
| 2026-05-04 15:00 | 30.77598 | 114.20294 | 117 ft | 19 kts | 218° |
| 2026-05-04 15:00 | 30.77490 | 114.20197 | 117 ft | 19 kts | 217° |
| 2026-05-04 15:00 | 30.77377 | 114.20103 | 117 ft | 19 kts | 214° |
| 2026-05-04 15:01 | 30.77237 | 114.19932 | 117 ft | 20 kts | 223° |
| 2026-05-04 15:01 | 30.77145 | 114.19821 | 117 ft | 6 kts | 245° |
| 2026-05-04 15:01 | 30.77144 | 114.19762 | 117 ft | 9 kts | 296° |
| 2026-05-04 15:01 | 30.77150 | 114.19750 | 117 ft | 0 kts | 301° |
| 2026-05-04 15:02 | 30.77162 | 114.19730 | 117 ft | 9 kts | 308° |
| 2026-05-04 15:02 | 30.77233 | 114.19673 | 117 ft | 13 kts | 4° |
| 2026-05-04 15:02 | 30.77313 | 114.19732 | 117 ft | 15 kts | 43° |
| 2026-05-04 15:02 | 30.77553 | 114.19980 | 117 ft | 88 kts | 40° |
| 2026-05-04 15:03 | 30.78209 | 114.20644 | 118 ft | 160 kts | 39° |
| 2026-05-04 15:03 | 30.79139 | 114.21619 | 491 ft | 188 kts | 46° |
| 2026-05-04 15:03 | 30.80150 | 114.22684 | 1102 ft | 210 kts | 41° |
| 2026-05-04 15:03 | 30.81318 | 114.23747 | 1944 ft | 222 kts | 39° |
| 2026-05-04 15:04 | 30.82539 | 114.24918 | 2616 ft | 239 kts | 44° |
| 2026-05-04 15:04 | 30.83816 | 114.26274 | 3316 ft | 257 kts | 44° |
| 2026-05-04 15:04 | 30.85161 | 114.27698 | 4083 ft | 270 kts | 43° |
| 2026-05-04 15:04 | 30.86582 | 114.29163 | 4960 ft | 278 kts | 43° |
| 2026-05-04 15:05 | 30.88043 | 114.30648 | 5938 ft | 283 kts | 42° |
| 2026-05-04 15:05 | 30.89528 | 114.32150 | 6953 ft | 286 kts | 42° |
| 2026-05-04 15:05 | 30.91013 | 114.33684 | 7925 ft | 289 kts | 43° |
| 2026-05-04 15:05 | 30.92492 | 114.35246 | 8860 ft | 292 kts | 43° |
| 2026-05-04 15:06 | 30.93994 | 114.36841 | 9755 ft | 296 kts | 42° |
| 2026-05-04 15:06 | 30.95541 | 114.38477 | 10400 ft | 310 kts | 41° |
| 2026-05-04 15:06 | 30.97163 | 114.40187 | 11011 ft | 323 kts | 41° |
| 2026-05-04 15:07 | 31.00660 | 114.43862 | 12131 ft | 353 kts | 41° |
| 2026-05-04 15:07 | 31.02517 | 114.45812 | 12648 ft | 369 kts | 41° |
| 2026-05-04 15:07 | 31.04468 | 114.47860 | 13255 ft | 381 kts | 40° |
| 2026-05-04 15:07 | 31.06439 | 114.49930 | 14058 ft | 388 kts | 40° |
| 2026-05-04 15:08 | 31.08469 | 114.52061 | 14869 ft | 394 kts | 40° |
| 2026-05-04 15:08 | 31.10484 | 114.54255 | 15691 ft | 400 kts | 44° |
| 2026-05-04 15:08 | 31.12209 | 114.56807 | 16477 ft | 408 kts | 57° |
| 2026-05-04 15:08 | 31.13263 | 114.59903 | 17270 ft | 416 kts | 76° |
| 2026-05-04 15:09 | 31.13522 | 114.63246 | 18103 ft | 420 kts | 88° |
| 2026-05-04 15:09 | 31.13512 | 114.66663 | 18806 ft | 428 kts | 90° |
| 2026-05-04 15:09 | 31.13453 | 114.70145 | 19587 ft | 432 kts | 90° |
| 2026-05-04 15:10 | 31.13073 | 114.77192 | 20931 ft | 445 kts | 100° |
| 2026-05-04 15:10 | 31.12256 | 114.80685 | 21663 ft | 449 kts | 110° |
| 2026-05-04 15:10 | 31.09195 | 114.87069 | 23024 ft | 457 kts | 129° |
| 2026-05-04 15:11 | 31.07036 | 114.89785 | 23685 ft | 459 kts | 139° |
| 2026-05-04 15:11 | 31.04508 | 114.92100 | 24262 ft | 463 kts | 148° |
| 2026-05-04 15:11 | 31.01765 | 114.94031 | 24842 ft | 466 kts | 153° |
| 2026-05-04 15:11 | 30.98907 | 114.95932 | 25410 ft | 472 kts | 151° |
| 2026-05-04 15:12 | 30.96239 | 114.98102 | 26023 ft | 478 kts | 143° |
| 2026-05-04 15:12 | 30.93799 | 115.00803 | 26766 ft | 481 kts | 135° |
| 2026-05-04 15:12 | 30.91768 | 115.03857 | 27451 ft | 485 kts | 126° |
| 2026-05-04 15:12 | 30.90122 | 115.07296 | 28138 ft | 488 kts | 117° |
| 2026-05-04 15:13 | 30.88931 | 115.11007 | 28752 ft | 492 kts | 108° |
| 2026-05-04 15:13 | 30.88223 | 115.14897 | 29336 ft | 495 kts | 98° |
| 2026-05-04 15:13 | 30.88019 | 115.18872 | 29920 ft | 497 kts | 89° |
| 2026-05-04 15:13 | 30.88307 | 115.22875 | 30359 ft | 499 kts | 81° |
| 2026-05-04 15:14 | 30.88975 | 115.26834 | 30793 ft | 501 kts | 75° |
| 2026-05-04 15:14 | 30.89972 | 115.30711 | 31229 ft | 501 kts | 68° |
| 2026-05-04 15:14 | 30.91285 | 115.34444 | 31732 ft | 499 kts | 62° |
| 2026-05-04 15:14 | 30.92915 | 115.38050 | 32146 ft | 498 kts | 56° |
| 2026-05-04 15:15 | 30.94821 | 115.41421 | 32536 ft | 497 kts | 49° |
| 2026-05-04 15:15 | 30.96980 | 115.44534 | 32965 ft | 495 kts | 43° |
| 2026-05-04 15:15 | 30.99413 | 115.47410 | 33173 ft | 493 kts | 35° |
| 2026-05-04 15:16 | 31.04813 | 115.52396 | 33220 ft | 504 kts | 34° |
| 2026-05-04 15:16 | 31.07462 | 115.55102 | 33212 ft | 505 kts | 36° |
| 2026-05-04 15:17 | 31.15196 | 115.63470 | 33224 ft | 505 kts | 37° |
| 2026-05-04 15:17 | 31.22958 | 115.71832 | 33250 ft | 506 kts | 37° |
| 2026-05-04 15:18 | 31.27867 | 115.77684 | 33269 ft | 511 kts | 48° |
| 2026-05-04 15:19 | 31.32788 | 115.88848 | 33224 ft | 518 kts | 66° |
| 2026-05-04 15:19 | 31.36544 | 116.00724 | 33201 ft | 520 kts | 68° |
| 2026-05-04 15:20 | 31.39015 | 116.08645 | 33194 ft | 518 kts | 67° |
| 2026-05-04 15:20 | 31.41520 | 116.16544 | 33181 ft | 518 kts | 67° |
| 2026-05-04 15:21 | 31.44050 | 116.24423 | 33179 ft | 519 kts | 66° |
| 2026-05-04 15:22 | 31.47869 | 116.36265 | 33173 ft | 520 kts | 66° |
| 2026-05-04 15:22 | 31.51692 | 116.48144 | 33164 ft | 519 kts | 67° |
| 2026-05-04 15:23 | 31.54221 | 116.56027 | 33146 ft | 517 kts | 67° |
| 2026-05-04 15:23 | 31.56746 | 116.63924 | 33148 ft | 518 kts | 66° |
| 2026-05-04 15:24 | 31.61779 | 116.79719 | 33135 ft | 516 kts | 67° |
| 2026-05-04 15:25 | 31.64275 | 116.87584 | 33128 ft | 517 kts | 67° |
| 2026-05-04 15:26 | 31.68010 | 116.99387 | 32992 ft | 508 kts | 67° |
| 2026-05-04 15:26 | 31.69241 | 117.03300 | 32431 ft | 506 kts | 68° |
| 2026-05-04 15:26 | 31.71644 | 117.11028 | 31106 ft | 505 kts | 68° |
| 2026-05-04 15:27 | 31.72841 | 117.14912 | 30478 ft | 502 kts | 68° |
| 2026-05-04 15:27 | 31.75189 | 117.22553 | 28981 ft | 498 kts | 68° |
| 2026-05-04 15:28 | 31.76981 | 117.30394 | 27091 ft | 501 kts | 81° |
| 2026-05-04 15:28 | 31.77190 | 117.34404 | 26658 ft | 494 kts | 89° |
| 2026-05-04 15:28 | 31.76764 | 117.42541 | 26617 ft | 506 kts | 99° |
| 2026-05-04 15:29 | 31.75988 | 117.46568 | 26631 ft | 507 kts | 105° |
| 2026-05-04 15:30 | 31.71392 | 117.62102 | 26626 ft | 505 kts | 110° |
| 2026-05-04 15:30 | 31.67840 | 117.73773 | 26635 ft | 508 kts | 110° |
| 2026-05-04 15:31 | 31.65557 | 117.81588 | 26633 ft | 506 kts | 110° |
| 2026-05-04 15:31 | 31.64437 | 117.85477 | 26634 ft | 507 kts | 109° |
| 2026-05-04 15:32 | 31.61066 | 117.97269 | 26633 ft | 508 kts | 109° |
| 2026-05-04 15:32 | 31.58830 | 118.05094 | 26638 ft | 509 kts | 109° |
| 2026-05-04 15:33 | 31.56584 | 118.12932 | 26641 ft | 509 kts | 109° |
| 2026-05-04 15:34 | 31.53199 | 118.24693 | 26636 ft | 510 kts | 109° |
| 2026-05-04 15:34 | 31.52058 | 118.28649 | 26640 ft | 511 kts | 110° |
| 2026-05-04 15:34 | 31.49797 | 118.36468 | 26632 ft | 509 kts | 110° |
| 2026-05-04 15:35 | 31.47521 | 118.44316 | 26642 ft | 512 kts | 110° |
| 2026-05-04 15:35 | 31.46376 | 118.48256 | 26638 ft | 510 kts | 110° |
| 2026-05-04 15:35 | 31.45235 | 118.52178 | 26644 ft | 512 kts | 110° |
| 2026-05-04 15:36 | 31.42929 | 118.60088 | 26641 ft | 512 kts | 110° |
| 2026-05-04 15:36 | 31.41790 | 118.63987 | 26641 ft | 512 kts | 110° |
| 2026-05-04 15:36 | 31.40628 | 118.67962 | 26645 ft | 512 kts | 110° |
| 2026-05-04 15:37 | 31.39475 | 118.71896 | 26646 ft | 512 kts | 110° |
| 2026-05-04 15:37 | 31.38333 | 118.75794 | 26651 ft | 514 kts | 110° |
| 2026-05-04 15:37 | 31.37172 | 118.79747 | 26650 ft | 515 kts | 110° |
| 2026-05-04 15:37 | 31.36000 | 118.83733 | 26653 ft | 514 kts | 110° |
| 2026-05-04 15:38 | 31.34843 | 118.87662 | 26650 ft | 514 kts | 110° |
| 2026-05-04 15:38 | 31.33697 | 118.91551 | 26338 ft | 508 kts | 110° |
| 2026-05-04 15:38 | 31.32549 | 118.95445 | 25366 ft | 509 kts | 110° |
| 2026-05-04 15:38 | 31.31394 | 118.99350 | 24641 ft | 502 kts | 110° |
| 2026-05-04 15:39 | 31.30263 | 119.03171 | 23906 ft | 496 kts | 110° |
| 2026-05-04 15:39 | 31.29149 | 119.06934 | 23188 ft | 490 kts | 109° |
| 2026-05-04 15:39 | 31.26972 | 119.14272 | 22138 ft | 471 kts | 109° |
| 2026-05-04 15:40 | 31.25909 | 119.17848 | 21461 ft | 466 kts | 109° |
| 2026-05-04 15:40 | 31.24845 | 119.21427 | 20775 ft | 461 kts | 109° |
| 2026-05-04 15:40 | 31.23803 | 119.24925 | 20131 ft | 455 kts | 109° |
| 2026-05-04 15:40 | 31.22769 | 119.28391 | 19770 ft | 450 kts | 109° |
| 2026-05-04 15:41 | 31.21728 | 119.31828 | 19754 ft | 452 kts | 111° |
| 2026-05-04 15:41 | 31.20534 | 119.35191 | 19750 ft | 453 kts | 116° |
| 2026-05-04 15:41 | 31.18916 | 119.38359 | 19753 ft | 452 kts | 127° |
| 2026-05-04 15:41 | 31.16850 | 119.41091 | 19757 ft | 449 kts | 138° |
| 2026-05-04 15:42 | 31.14498 | 119.43491 | 19754 ft | 449 kts | 143° |
| 2026-05-04 15:42 | 31.12047 | 119.45737 | 19757 ft | 447 kts | 144° |
| 2026-05-04 15:42 | 31.09564 | 119.47903 | 19756 ft | 447 kts | 146° |
| 2026-05-04 15:42 | 31.07052 | 119.50048 | 19763 ft | 446 kts | 146° |
| 2026-05-04 15:43 | 31.04548 | 119.52174 | 19760 ft | 447 kts | 146° |
| 2026-05-04 15:43 | 31.02023 | 119.54323 | 19757 ft | 446 kts | 146° |
| 2026-05-04 15:43 | 30.99519 | 119.56463 | 19760 ft | 446 kts | 146° |
| 2026-05-04 15:43 | 30.97043 | 119.58588 | 19618 ft | 440 kts | 146° |
| 2026-05-04 15:44 | 30.94644 | 119.60659 | 19387 ft | 425 kts | 146° |
| 2026-05-04 15:44 | 30.92288 | 119.62700 | 19138 ft | 411 kts | 146° |
| 2026-05-04 15:44 | 30.90051 | 119.64641 | 18900 ft | 398 kts | 146° |
| 2026-05-04 15:44 | 30.87873 | 119.66533 | 18613 ft | 386 kts | 146° |
| 2026-05-04 15:45 | 30.85731 | 119.68391 | 18059 ft | 384 kts | 146° |
| 2026-05-04 15:45 | 30.83608 | 119.70230 | 17487 ft | 381 kts | 146° |
| 2026-05-04 15:45 | 30.81471 | 119.72079 | 16953 ft | 377 kts | 146° |
| 2026-05-04 15:45 | 30.79377 | 119.73892 | 16411 ft | 374 kts | 145° |
| 2026-05-04 15:46 | 30.77294 | 119.75694 | 15977 ft | 367 kts | 145° |
| 2026-05-04 15:46 | 30.75310 | 119.77414 | 15807 ft | 353 kts | 145° |
| 2026-05-04 15:46 | 30.73432 | 119.79161 | 15665 ft | 340 kts | 139° |
| 2026-05-04 15:46 | 30.71876 | 119.81190 | 15329 ft | 335 kts | 125° |
| 2026-05-04 15:47 | 30.70816 | 119.83588 | 14919 ft | 331 kts | 111° |
| 2026-05-04 15:47 | 30.70067 | 119.86082 | 14501 ft | 328 kts | 108° |
| 2026-05-04 15:47 | 30.69394 | 119.88600 | 14039 ft | 326 kts | 107° |
| 2026-05-04 15:47 | 30.68747 | 119.91101 | 13611 ft | 324 kts | 107° |
| 2026-05-04 15:48 | 30.68100 | 119.93574 | 13236 ft | 319 kts | 107° |
| 2026-05-04 15:48 | 30.67440 | 119.96050 | 12882 ft | 315 kts | 107° |
| 2026-05-04 15:48 | 30.65450 | 120.00515 | 12862 ft | 318 kts | 136° |
| 2026-05-04 15:49 | 30.63733 | 120.02119 | 12869 ft | 317 kts | 146° |
| 2026-05-04 15:49 | 30.61908 | 120.03554 | 12864 ft | 316 kts | 147° |
| 2026-05-04 15:49 | 30.60086 | 120.04964 | 12868 ft | 316 kts | 147° |
| 2026-05-04 15:49 | 30.58261 | 120.06407 | 12866 ft | 316 kts | 146° |
| 2026-05-04 15:50 | 30.56452 | 120.07875 | 12870 ft | 316 kts | 146° |
| 2026-05-04 15:50 | 30.54672 | 120.09345 | 12863 ft | 316 kts | 145° |
| 2026-05-04 15:50 | 30.52914 | 120.10812 | 12765 ft | 305 kts | 145° |
| 2026-05-04 15:50 | 30.51223 | 120.12226 | 12659 ft | 292 kts | 145° |
| 2026-05-04 15:51 | 30.49599 | 120.13583 | 12555 ft | 280 kts | 145° |
| 2026-05-04 15:51 | 30.48029 | 120.14799 | 12425 ft | 269 kts | 152° |
| 2026-05-04 15:51 | 30.46366 | 120.15758 | 12174 ft | 264 kts | 158° |
| 2026-05-04 15:51 | 30.44670 | 120.16576 | 11842 ft | 263 kts | 159° |
| 2026-05-04 15:52 | 30.42972 | 120.17373 | 11520 ft | 262 kts | 158° |
| 2026-05-04 15:52 | 30.41296 | 120.18182 | 11227 ft | 259 kts | 157° |
| 2026-05-04 15:52 | 30.39633 | 120.19006 | 10893 ft | 258 kts | 157° |
| 2026-05-04 15:52 | 30.37988 | 120.19830 | 10577 ft | 257 kts | 156° |
| 2026-05-04 15:53 | 30.36347 | 120.20655 | 10256 ft | 256 kts | 156° |
| 2026-05-04 15:53 | 30.34730 | 120.21467 | 9937 ft | 256 kts | 156° |
| 2026-05-04 15:53 | 30.33096 | 120.22287 | 9786 ft | 252 kts | 156° |
| 2026-05-04 15:53 | 30.31494 | 120.23151 | 9800 ft | 255 kts | 153° |
| 2026-05-04 15:54 | 30.29924 | 120.24087 | 9804 ft | 256 kts | 149° |
| 2026-05-04 15:54 | 30.28497 | 120.25303 | 9764 ft | 251 kts | 131° |
| 2026-05-04 15:54 | 30.27605 | 120.26965 | 9678 ft | 237 kts | 106° |
| 2026-05-04 15:54 | 30.27304 | 120.28770 | 9597 ft | 224 kts | 90° |
| 2026-05-04 15:55 | 30.27395 | 120.30521 | 9477 ft | 212 kts | 72° |
| 2026-05-04 15:55 | 30.27940 | 120.32074 | 9272 ft | 207 kts | 59° |
| 2026-05-04 15:55 | 30.28622 | 120.33511 | 9090 ft | 201 kts | 58° |
| 2026-05-04 15:55 | 30.29283 | 120.34930 | 8789 ft | 203 kts | 59° |
| 2026-05-04 15:56 | 30.29937 | 120.36390 | 8498 ft | 203 kts | 60° |
| 2026-05-04 15:56 | 30.30578 | 120.37845 | 8240 ft | 202 kts | 60° |
| 2026-05-04 15:56 | 30.31210 | 120.39278 | 7984 ft | 202 kts | 60° |
| 2026-05-04 15:56 | 30.31851 | 120.40726 | 7726 ft | 201 kts | 60° |
| 2026-05-04 15:57 | 30.32492 | 120.42168 | 7460 ft | 201 kts | 60° |
| 2026-05-04 15:57 | 30.33126 | 120.43601 | 7210 ft | 199 kts | 60° |
| 2026-05-04 15:57 | 30.33753 | 120.45018 | 6971 ft | 198 kts | 60° |
| 2026-05-04 15:57 | 30.34375 | 120.46427 | 6895 ft | 194 kts | 60° |
| 2026-05-04 15:58 | 30.34983 | 120.47804 | 6708 ft | 192 kts | 60° |
| 2026-05-04 15:58 | 30.35598 | 120.49195 | 6394 ft | 196 kts | 61° |
| 2026-05-04 15:58 | 30.36209 | 120.50580 | 6149 ft | 196 kts | 61° |
| 2026-05-04 15:58 | 30.36832 | 120.51990 | 5916 ft | 195 kts | 61° |
| 2026-05-04 15:59 | 30.37445 | 120.53381 | 5795 ft | 191 kts | 61° |
| 2026-05-04 15:59 | 30.38053 | 120.54756 | 5483 ft | 195 kts | 61° |
| 2026-05-04 15:59 | 30.38675 | 120.56165 | 5212 ft | 197 kts | 62° |
| 2026-05-04 15:59 | 30.39302 | 120.57588 | 4959 ft | 197 kts | 62° |
| 2026-05-04 16:00 | 30.39918 | 120.58989 | 4901 ft | 194 kts | 62° |
| 2026-05-04 16:00 | 30.40539 | 120.60396 | 4903 ft | 198 kts | 62° |
| 2026-05-04 16:00 | 30.41162 | 120.61810 | 4902 ft | 196 kts | 63° |
| 2026-05-04 16:00 | 30.41624 | 120.63296 | 4900 ft | 198 kts | 82° |
| 2026-05-04 16:01 | 30.41438 | 120.64857 | 4907 ft | 199 kts | 114° |
| 2026-05-04 16:01 | 30.40647 | 120.66171 | 4904 ft | 199 kts | 135° |
| 2026-05-04 16:01 | 30.39548 | 120.67095 | 4821 ft | 193 kts | 153° |
| 2026-05-04 16:01 | 30.38317 | 120.67703 | 4545 ft | 194 kts | 167° |
| 2026-05-04 16:02 | 30.36981 | 120.67772 | 4287 ft | 191 kts | 193° |
| 2026-05-04 16:02 | 30.35780 | 120.67172 | 4046 ft | 188 kts | 217° |
| 2026-05-04 16:02 | 30.34331 | 120.64725 | 3551 ft | 186 kts | 244° |
| 2026-05-04 16:03 | 30.33774 | 120.63384 | 3310 ft | 185 kts | 243° |
| 2026-05-04 16:03 | 30.33221 | 120.62046 | 3063 ft | 183 kts | 243° |
| 2026-05-04 16:03 | 30.32690 | 120.60793 | 2978 ft | 161 kts | 242° |
| 2026-05-04 16:03 | 30.32223 | 120.59739 | 3009 ft | 137 kts | 241° |
| 2026-05-04 16:04 | 30.31794 | 120.58775 | 2972 ft | 135 kts | 242° |
| 2026-05-04 16:04 | 30.30844 | 120.56640 | 2518 ft | 168 kts | 241° |
| 2026-05-04 16:04 | 30.30313 | 120.55434 | 2185 ft | 162 kts | 241° |
| 2026-05-04 16:05 | 30.29853 | 120.54429 | 2371 ft | 123 kts | 237° |
| 2026-05-04 16:05 | 30.29352 | 120.53535 | 2321 ft | 138 kts | 233° |
| 2026-05-04 16:05 | 30.28367 | 120.51251 | 3245 ft | 180 kts | 244° |
| 2026-05-04 16:06 | 30.27815 | 120.49908 | 3852 ft | 196 kts | 243° |
| 2026-05-04 16:06 | 30.26084 | 120.45981 | 3876 ft | 209 kts | 246° |
| 2026-05-04 16:07 | 30.25952 | 120.43761 | 3910 ft | 215 kts | 289° |
| 2026-05-04 16:07 | 30.29482 | 120.40736 | 3901 ft | 217 kts | 335° |
| 2026-05-04 16:08 | 30.30947 | 120.40308 | 3897 ft | 219 kts | 2° |
| 2026-05-04 16:08 | 30.34106 | 120.43692 | 3900 ft | 218 kts | 64° |
| 2026-05-04 16:09 | 30.35490 | 120.46827 | 3905 ft | 220 kts | 63° |
| 2026-05-04 16:09 | 30.36911 | 120.49941 | 3907 ft | 219 kts | 63° |
| 2026-05-04 16:10 | 30.38332 | 120.53055 | 3899 ft | 218 kts | 63° |
| 2026-05-04 16:11 | 30.40352 | 120.57518 | 3712 ft | 198 kts | 63° |
| 2026-05-04 16:11 | 30.40998 | 120.58937 | 3529 ft | 196 kts | 63° |
| 2026-05-04 16:12 | 30.42624 | 120.62865 | 3074 ft | 173 kts | 90° |
| 2026-05-04 16:12 | 30.40359 | 120.65435 | 3005 ft | 153 kts | 154° |
| 2026-05-04 16:13 | 30.38458 | 120.66554 | 2998 ft | 152 kts | 165° |
| 2026-05-04 16:13 | 30.36550 | 120.65816 | 3001 ft | 153 kts | 215° |
| 2026-05-04 16:14 | 30.34792 | 120.64397 | 2999 ft | 153 kts | 220° |
| 2026-05-04 16:14 | 30.33496 | 120.62459 | 2998 ft | 150 kts | 238° |
| 2026-05-04 16:15 | 30.32160 | 120.59590 | 2989 ft | 133 kts | 240° |
| 2026-05-04 16:16 | 30.31297 | 120.57652 | 2638 ft | 133 kts | 241° |
| 2026-05-04 16:16 | 30.30037 | 120.54813 | 2123 ft | 132 kts | 240° |
| 2026-05-04 16:17 | 30.29198 | 120.52923 | 1759 ft | 132 kts | 239° |
| 2026-05-04 16:18 | 30.27943 | 120.50097 | 1222 ft | 132 kts | 240° |
| 2026-05-04 16:18 | 30.27522 | 120.49151 | 1042 ft | 132 kts | 241° |
| 2026-05-04 16:19 | 30.26241 | 120.46287 | 504 ft | 134 kts | 239° |
| 2026-05-04 16:19 | 30.25368 | 120.44369 | 177 ft | 135 kts | 242° |
| 2026-05-04 16:20 | 30.24177 | 120.41696 | 719 ft | 111 kts | 239° |
| 2026-05-04 16:20 | 30.23161 | 120.39809 | 2047 ft | 143 kts | 241° |
| 2026-05-04 16:21 | 30.21195 | 120.36290 | 2998 ft | 204 kts | 234° |
| 2026-05-04 16:22 | 30.20819 | 120.33147 | 2996 ft | 213 kts | 295° |
| 2026-05-04 16:22 | 30.24452 | 120.30280 | 2972 ft | 218 kts | 349° |
| 2026-05-04 16:23 | 30.28097 | 120.32850 | 2973 ft | 219 kts | 55° |
| 2026-05-04 16:24 | 30.31700 | 120.38479 | 2976 ft | 216 kts | 54° |
| 2026-05-04 16:25 | 30.33408 | 120.41350 | 2976 ft | 216 kts | 62° |
| 2026-05-04 16:26 | 30.36305 | 120.47472 | 2976 ft | 217 kts | 63° |
| 2026-05-04 16:26 | 30.38476 | 120.52084 | 2974 ft | 217 kts | 63° |
| 2026-05-04 16:27 | 30.39917 | 120.55145 | 2981 ft | 217 kts | 62° |
| 2026-05-04 16:28 | 30.42087 | 120.59757 | 2975 ft | 217 kts | 62° |
| 2026-05-04 16:28 | 30.44162 | 120.64444 | 2973 ft | 217 kts | 75° |
| 2026-05-04 16:29 | 30.41461 | 120.68890 | 2972 ft | 164 kts | 152° |
| 2026-05-04 16:30 | 30.38363 | 120.68846 | 2978 ft | 162 kts | 213° |
| 2026-05-04 16:31 | 30.36498 | 120.67415 | 2977 ft | 156 kts | 213° |
| 2026-05-04 16:31 | 30.34561 | 120.64832 | 2980 ft | 132 kts | 238° |
| 2026-05-04 16:32 | 30.33235 | 120.62012 | 2980 ft | 133 kts | 241° |
| 2026-05-04 16:33 | 30.32387 | 120.60111 | 2979 ft | 132 kts | 241° |
| 2026-05-04 16:33 | 30.31537 | 120.58191 | 2775 ft | 134 kts | 241° |
| 2026-05-04 16:34 | 30.30697 | 120.56301 | 2411 ft | 133 kts | 240° |
| 2026-05-04 16:34 | 30.30273 | 120.55347 | 2208 ft | 132 kts | 240° |
| 2026-05-04 16:35 | 30.29025 | 120.52531 | 1680 ft | 130 kts | 240° |
| 2026-05-04 16:35 | 30.27778 | 120.49726 | 1153 ft | 131 kts | 240° |
| 2026-05-04 16:36 | 30.27358 | 120.48782 | 974 ft | 131 kts | 241° |
| 2026-05-04 16:36 | 30.26528 | 120.46902 | 646 ft | 132 kts | 242° |
| 2026-05-04 16:37 | 30.25649 | 120.45017 | 278 ft | 132 kts | 240° |
| 2026-05-04 16:37 | 30.25234 | 120.44064 | 109 ft | 130 kts | 243° |
| 2026-05-04 16:37 | 30.24536 | 120.42477 | 38 ft | 83 kts | 243° |
| 2026-05-04 16:38 | 30.24202 | 120.41715 | 40 ft | 0 kts | 244° |
| 2026-05-04 16:39 | 30.24089 | 120.41447 | 41 ft | 21 kts | 243° |
| 2026-05-04 16:39 | 30.23953 | 120.41144 | 41 ft | 21 kts | 242° |
| 2026-05-04 16:40 | 30.23722 | 120.41145 | 41 ft | 18 kts | 126° |
| 2026-05-04 16:40 | 30.23787 | 120.41410 | 41 ft | 18 kts | 63° |
| 2026-05-04 16:41 | 30.23919 | 120.41713 | 40 ft | 22 kts | 64° |
| 2026-05-04 16:41 | 30.24052 | 120.42211 | 38 ft | 21 kts | 110° |
| 2026-05-04 16:42 | 30.23971 | 120.42316 | 38 ft | 0 kts | 158° |